Time;durP1;ratioP1;P1;durP2;ratioP2;P2;SDS_P1;SDS_P2;PMS_P1;PMS_P2;Temp;Humidity;BMP_temperature;BMP_pressure;BME280_temperature;BME280_humidity;BME280_pressure;Samples;Min_cycle;Max_cycle;Signal;HPM_P1;HPM_P2
2023/02/14 00:01:47;;;;;;;25.40;13.03;;;1.80;91.00;;;5.28;51.37;99395.28;5030535;28;20049;-47
2023/02/14 00:04:17;;;;;;;22.97;12.30;;;1.90;91.90;;;5.31;52.12;99397.75;5029169;28;20046;-46
2023/02/14 00:06:45;;;;;;;25.80;13.07;;;1.90;92.30;;;5.34;51.19;99394.09;5031008;28;20057;-46
2023/02/14 00:09:17;;;;;;;22.20;12.30;;;2.00;91.60;;;5.38;51.17;99387.69;5022408;28;20049;-45
2023/02/14 00:11:45;;;;;;;19.60;10.87;;;2.10;91.60;;;5.32;51.79;99386.25;5030660;28;20046;-47
2023/02/14 00:17:00;;;;;;;21.33;12.40;;;2.10;91.30;;;5.37;52.02;99378.09;5033756;28;20046;-48
2023/02/14 00:19:27;;;;;;;19.57;12.07;;;2.10;91.00;;;5.39;52.00;99389.41;5034351;28;20072;-47
2023/02/14 00:21:55;;;;;;;21.77;13.30;;;2.10;90.70;;;5.40;52.20;99380.53;5034005;28;20037;-45
2023/02/14 00:24:25;;;;;;;28.90;14.47;;;2.10;90.50;;;5.39;52.03;99388.53;5033816;28;20041;-44
2023/02/14 00:26:53;;;;;;;28.70;15.00;;;2.10;90.20;;;5.36;51.51;99392.22;5034160;28;20433;-46
2023/02/14 00:29:25;;;;;;;21.97;12.57;;;2.10;90.20;;;5.33;51.71;99387.09;5034540;28;20049;-45
2023/02/14 00:31:53;;;;;;;22.97;13.57;;;2.00;89.90;;;5.29;51.66;99383.78;5034414;28;20045;-45
2023/02/14 00:34:23;;;;;;;23.50;12.10;;;1.90;90.50;;;5.31;52.10;99383.69;5016584;28;20072;-45
2023/02/14 00:36:51;;;;;;;20.90;11.87;;;1.90;90.50;;;5.31;51.76;99389.84;5032885;28;20062;-44
2023/02/14 00:39:19;;;;;;;23.33;12.00;;;1.90;89.80;;;5.24;51.67;99388.47;5032569;28;20053;-45
2023/02/14 00:41:46;;;;;;;20.70;13.10;;;1.70;89.90;;;5.18;51.91;99386.16;5033388;28;20064;-47
2023/02/14 00:44:16;;;;;;;25.17;12.67;;;1.70;89.80;;;5.10;51.95;99383.09;5024899;28;20050;-51
2023/02/14 00:46:44;;;;;;;19.03;11.27;;;1.60;90.90;;;5.08;51.36;99384.97;5033913;28;20041;-48
2023/02/14 00:49:12;;;;;;;20.47;12.33;;;1.70;91.50;;;5.07;51.42;99381.47;5040335;28;20042;-46
2023/02/14 00:51:39;;;;;;;26.23;12.70;;;1.70;91.20;;;5.08;51.43;99385.81;5032945;28;20045;-45
2023/02/14 00:54:07;;;;;;;24.70;12.43;;;1.60;91.00;;;5.07;51.07;99385.91;5033199;28;20045;-48
2023/02/14 00:56:35;;;;;;;22.37;11.53;;;1.60;90.60;;;5.03;51.81;99385.22;5032143;28;20049;-50
2023/02/14 00:59:02;;;;;;;24.83;12.67;;;1.50;90.70;;;5.00;51.53;99381.88;5040280;28;20069;-44
2023/02/14 01:01:30;;;;;;;18.83;10.77;;;1.40;90.40;;;4.96;51.19;99383.84;5032371;28;20049;-48
2023/02/14 01:03:58;;;;;;;21.63;11.83;;;1.40;90.60;;;4.92;51.66;99383.16;5032099;28;20080;-51
2023/02/14 01:06:26;;;;;;;21.30;11.57;;;1.40;90.20;;;4.90;51.30;99385.03;5031927;28;20293;-49
2023/02/14 01:08:53;;;;;;;23.03;11.37;;;1.40;90.60;;;4.90;51.32;99394.72;5033347;28;20041;-45
2023/02/14 01:11:23;;;;;;;20.73;12.93;;;1.40;90.90;;;4.89;52.09;99393.88;5032119;28;20061;-45
2023/02/14 01:13:56;;;;;;;24.33;11.50;;;1.40;90.30;;;4.84;51.40;99389.78;5039537;28;20061;-51
2023/02/14 01:16:26;;;;;;;23.17;13.33;;;1.30;90.60;;;4.82;51.35;99394.28;5032406;28;20048;-47
2023/02/14 01:18:55;;;;;;;19.73;10.83;;;1.30;90.80;;;4.79;51.28;99386.53;5023796;28;20509;-46
2023/02/14 01:21:30;;;;;;;23.23;11.83;;;1.30;91.00;;;4.76;51.19;99390.19;5032737;28;20045;-46
2023/02/14 01:24:03;;;;;;;24.57;12.53;;;1.20;90.90;;;4.76;51.57;99384.91;5023106;28;20041;-47
2023/02/14 01:26:31;;;;;;;20.90;11.53;;;1.20;91.40;;;4.76;51.70;99390.19;5032989;28;20420;-49
2023/02/14 01:29:02;;;;;;;22.00;12.40;;;1.30;91.80;;;4.73;51.90;99385.09;5023642;28;20041;-45
2023/02/14 01:31:32;;;;;;;24.23;13.23;;;1.30;91.30;;;4.71;51.89;99386.94;5037645;28;20045;-49
2023/02/14 01:34:00;;;;;;;22.77;13.50;;;1.30;91.90;;;4.73;51.87;99383.31;5031399;28;20048;-47
2023/02/14 01:36:32;;;;;;;25.47;12.17;;;1.30;91.90;;;4.77;52.07;99391.03;5032313;28;20528;-48
2023/02/14 01:39:05;;;;;;;23.83;12.17;;;1.40;92.10;;;4.79;52.19;99389.16;5031864;28;20424;-45
2023/02/14 01:41:36;;;;;;;23.83;12.37;;;1.40;91.80;;;4.78;51.73;99383.03;5031710;28;20508;-44
2023/02/14 01:44:18;;;;;;;27.07;13.17;;;1.40;91.30;;;4.77;51.40;99375.19;5022889;28;20620;-46
2023/02/14 01:46:45;;;;;;;19.63;12.60;;;1.40;91.30;;;4.77;52.19;99376.06;5032077;28;20049;-45
2023/02/14 01:49:27;;;;;;;20.03;11.97;;;1.50;91.10;;;4.76;51.59;99377.00;5032019;28;20057;-47
2023/02/14 01:52:19;;;;;;;21.90;12.87;;;1.50;91.10;;;4.79;52.18;99375.97;5031359;28;20509;-45
2023/02/14 01:54:59;;;;;;;28.67;13.07;;;1.40;90.40;;;4.77;51.31;99378.72;5033611;28;20048;-47
2023/02/14 01:57:37;;;;;;;26.23;13.17;;;1.40;91.10;;;4.77;51.74;99383.13;5008983;28;20072;-48
2023/02/14 02:02:58;;;;;;;22.80;12.20;;;1.30;91.10;;;4.73;51.81;99393.00;5017285;28;20049;-47
2023/02/14 02:05:26;;;;;;;19.70;12.87;;;1.30;91.20;;;4.68;52.17;99384.47;5032243;28;20040;-45
2023/02/14 02:07:57;;;;;;;23.17;12.00;;;1.30;91.50;;;4.68;51.76;99390.59;5014476;28;20045;-45
2023/02/14 02:10:27;;;;;;;24.20;11.68;;;1.20;91.60;;;4.68;51.64;99390.59;5030738;28;20041;-50
2023/02/14 02:12:58;;;;;;;19.63;11.47;;;1.20;91.70;;;4.67;52.12;99394.19;5030694;28;20041;-51
2023/02/14 02:15:28;;;;;;;20.20;10.47;;;1.20;91.70;;;4.65;51.78;99390.78;5030957;28;20065;-49
2023/02/14 02:18:12;;;;;;;22.33;12.17;;;1.20;91.70;;;4.65;51.91;99392.53;5030874;28;20049;-45
2023/02/14 02:21:24;;;;;;;19.00;11.60;;;1.20;91.70;;;4.57;51.77;99392.09;5031237;28;20057;-48
2023/02/14 02:24:20;;;;;;;22.47;11.33;;;1.20;92.10;;;4.61;52.23;99391.84;5027319;28;20037;-45
2023/02/14 02:27:15;;;;;;;;;;;1.20;91.70;;;4.55;51.79;99389.53;5013245;28;20050;-45
2023/02/14 02:29:51;;;;;;;20.80;10.88;;;1.20;91.60;;;4.60;51.62;99389.31;5025894;28;19928;-51
2023/02/14 02:33:12;;;;;;;20.97;11.33;;;1.10;91.20;;;4.47;51.61;99389.09;5032423;28;20421;-45
2023/02/14 02:35:39;;;;;;;21.00;11.37;;;1.10;91.00;;;4.49;51.33;99385.44;5025186;28;20046;-46
2023/02/14 02:38:37;;;;;;;23.53;12.33;;;1.00;91.10;;;4.42;51.50;99380.56;5030855;28;20084;-48
2023/02/14 02:41:36;;;;;;;22.10;12.07;;;1.00;91.30;;;4.38;51.82;99387.81;5030003;28;20041;-49
2023/02/14 02:44:41;;;;;;;22.53;12.03;;;1.00;91.60;;;4.35;52.06;99374.75;5029994;28;20045;-46
2023/02/14 02:47:50;;;;;;;22.00;12.13;;;1.00;92.00;;;4.32;51.97;99373.16;5030356;28;20076;-51
2023/02/14 02:53:56;;;;;;;23.83;10.97;;;1.00;92.30;;;4.37;51.93;99374.69;5023020;28;20038;-44
2023/02/14 02:56:45;;;;;;;21.37;11.47;;;1.00;91.80;;;4.33;52.21;99379.28;5022947;28;20048;-46
2023/02/14 02:59:37;;;;;;;22.57;11.30;;;1.00;91.80;;;4.30;52.05;99382.94;5023517;28;20420;-48
2023/02/14 03:02:06;;;;;;;20.80;10.80;;;0.90;91.60;;;4.32;51.50;99391.59;5014305;28;20052;-45
2023/02/14 03:04:53;;;;;;;27.43;14.10;;;0.90;91.80;;;4.32;51.70;99391.59;5029998;28;20045;-48
2023/02/14 03:07:34;;;;;;;27.17;14.43;;;0.90;92.30;;;4.31;51.80;99375.84;5022327;28;20045;-46
2023/02/14 03:10:22;;;;;;;21.67;12.03;;;0.90;91.50;;;4.27;51.46;99385.72;5022456;28;20042;-48
2023/02/14 03:13:28;;;;;;;20.87;12.00;;;0.80;91.60;;;4.21;51.55;99383.38;5013981;28;20041;-48
2023/02/14 03:16:52;;;;;;;21.37;13.03;;;0.80;91.90;;;4.14;51.69;99382.84;5022335;28;20057;-47
2023/02/14 03:22:32;;;;;;;19.17;12.47;;;0.80;92.70;;;4.20;51.63;99383.47;5022151;28;20072;-47
2023/02/14 03:25:41;;;;;;;19.77;11.43;;;0.80;92.50;;;4.16;52.43;99380.13;5022198;28;20045;-47
2023/02/14 03:28:22;;;;;;;22.30;14.13;;;0.80;93.00;;;4.19;52.10;99381.75;5029774;28;20053;-46
2023/02/14 03:31:13;;;;;;;20.70;12.57;;;0.80;92.70;;;4.12;52.09;99384.69;5021885;28;20041;-45
2023/02/14 03:34:18;;;;;;;26.50;13.97;;;0.80;92.20;;;4.10;52.37;99381.28;5023762;28;20041;-49
2023/02/14 03:37:07;;;;;;;28.00;13.33;;;0.70;92.40;;;4.08;51.78;99380.50;5041223;28;20045;-48
2023/02/14 03:40:20;;;;;;;21.93;11.43;;;0.70;93.60;;;4.06;51.86;99384.16;5016260;28;20056;-46
2023/02/14 03:42:58;;;;;;;23.80;12.07;;;0.60;93.20;;;4.06;52.38;99382.38;5025943;28;20049;-47
2023/02/14 03:45:34;;;;;;;24.40;12.90;;;0.70;92.90;;;4.03;51.81;99379.91;5006073;28;20041;-45
2023/02/14 03:48:09;;;;;;;30.13;13.10;;;0.60;92.90;;;4.01;51.94;99384.38;5029392;28;20386;-49
2023/02/14 03:50:40;;;;;;;25.00;13.43;;;0.60;93.20;;;4.00;52.58;99387.13;5032765;28;20036;-45
2023/02/14 03:53:11;;;;;;;20.73;12.07;;;0.60;93.70;;;4.01;52.30;99388.81;5034467;28;20052;-44
2023/02/14 03:55:49;;;;;;;24.40;12.23;;;0.50;93.80;;;3.98;52.72;99381.91;5033848;28;20037;-48
2023/02/14 03:58:32;;;;;;;25.47;13.07;;;0.50;94.30;;;3.97;52.28;99371.44;5033606;28;20052;-45
2023/02/14 04:01:24;;;;;;;23.13;12.10;;;0.60;94.10;;;3.97;52.25;99376.72;5033372;28;20034;-47
2023/02/14 04:03:55;;;;;;;21.03;13.27;;;0.50;93.20;;;3.99;51.81;99373.06;5033259;28;20038;-46
2023/02/14 04:06:22;;;;;;;26.70;13.53;;;0.50;93.50;;;3.97;52.26;99367.03;5033311;28;20041;-47
2023/02/14 04:08:50;;;;;;;32.90;15.00;;;0.50;93.60;;;3.96;52.35;99369.75;5034348;28;20401;-46
2023/02/14 04:11:17;;;;;;;28.17;13.17;;;0.50;93.20;;;3.92;52.48;99362.00;5033309;28;20045;-47
2023/02/14 04:13:45;;;;;;;30.80;14.53;;;0.50;93.90;;;3.94;52.65;99364.56;5034310;28;20041;-46
2023/02/14 04:16:13;;;;;;;48.87;22.63;;;0.50;94.40;;;3.96;52.61;99367.13;5034440;28;20053;-46
2023/02/14 04:21:26;;;;;;;36.40;16.43;;;0.60;94.10;;;3.96;52.08;99375.03;5025445;28;20041;-48
2023/02/14 04:23:54;;;;;;;23.50;12.30;;;0.60;94.90;;;4.00;52.49;99377.41;5033264;28;20402;-49
2023/02/14 04:26:21;;;;;;;26.03;12.63;;;0.60;95.00;;;3.99;52.38;99372.22;5034284;28;20076;-48
2023/02/14 04:28:49;;;;;;;23.17;13.37;;;0.60;94.50;;;3.99;52.13;99370.44;5034376;28;20033;-48
2023/02/14 04:31:16;;;;;;;25.37;13.93;;;0.50;94.70;;;3.99;52.05;99373.06;5030052;28;20049;-48
2023/02/14 04:33:46;;;;;;;25.30;12.53;;;0.50;94.80;;;3.98;52.26;99370.53;5033752;28;20042;-45
2023/02/14 04:36:14;;;;;;;25.07;13.10;;;0.60;94.80;;;4.00;52.48;99374.78;5034074;28;20065;-46
2023/02/14 04:38:41;;;;;;;23.00;13.17;;;0.60;95.00;;;4.03;52.40;99368.50;5034312;28;20515;-46
2023/02/14 04:41:09;;;;;;;29.67;13.60;;;0.60;94.80;;;4.02;52.51;99364.16;5033968;28;20045;-45
2023/02/14 04:43:37;;;;;;;26.70;13.20;;;0.60;94.70;;;4.04;52.08;99365.78;5033758;28;20413;-46
2023/02/14 04:46:04;;;;;;;24.13;13.93;;;0.70;94.70;;;4.05;52.37;99370.16;5033556;28;20054;-47
2023/02/14 04:48:32;;;;;;;27.37;13.63;;;0.70;94.50;;;4.07;52.67;99367.41;5034053;28;20041;-47
2023/02/14 04:50:59;;;;;;;30.83;14.07;;;0.70;93.80;;;4.00;52.28;99366.88;5033777;28;20041;-47
2023/02/14 04:53:27;;;;;;;25.73;13.47;;;0.60;94.10;;;4.00;52.21;99364.25;5033183;28;20043;-48
2023/02/14 04:55:55;;;;;;;32.00;14.90;;;0.60;94.10;;;4.02;52.33;99364.16;5032322;28;20038;-47
2023/02/14 04:58:22;;;;;;;27.27;14.03;;;0.50;93.80;;;3.99;52.34;99365.16;5033523;28;20420;-44
2023/02/14 05:00:50;;;;;;;26.83;13.73;;;0.50;94.00;;;3.97;52.34;99358.28;5031780;28;20057;-45
2023/02/14 05:03:17;;;;;;;26.50;13.60;;;0.50;94.70;;;3.93;52.45;99368.13;5033299;28;20053;-50
2023/02/14 05:05:45;;;;;;;28.57;15.07;;;0.50;94.80;;;3.91;52.39;99356.78;5033447;28;20041;-44
2023/02/14 05:08:13;;;;;;;22.47;14.10;;;0.50;95.50;;;3.91;52.42;99362.06;5033320;28;20072;-48
2023/02/14 05:10:42;;;;;;;27.67;13.93;;;0.50;95.50;;;3.91;52.86;99362.06;5033246;28;20042;-49
2023/02/14 05:13:09;;;;;;;27.53;13.27;;;0.50;95.40;;;3.91;52.56;99362.06;5032938;28;20056;-49
2023/02/14 05:15:37;;;;;;;28.43;15.20;;;0.50;95.20;;;3.87;52.34;99361.38;5033465;28;20417;-47
2023/02/14 05:18:05;;;;;;;27.07;15.53;;;0.40;96.20;;;3.83;52.96;99362.44;5033097;28;20049;-50
2023/02/14 05:20:32;;;;;;;29.20;15.10;;;0.40;96.30;;;3.85;52.74;99359.75;5033188;28;20049;-47
2023/02/14 05:23:02;;;;;;;27.23;14.30;;;0.40;96.70;;;3.84;52.36;99358.91;5033033;28;20140;-49
2023/02/14 05:25:30;;;;;;;57.83;28.43;;;0.30;96.80;;;3.84;53.09;99355.38;5032947;28;20072;-47
2023/02/14 05:27:58;;;;;;;67.43;34.13;;;0.30;97.00;;;3.81;52.70;99359.03;5033097;28;20041;-45
2023/02/14 05:30:26;;;;;;;44.67;26.00;;;0.30;97.30;;;3.81;52.70;99361.69;5032839;28;20041;-45
2023/02/14 05:32:54;;;;;;;40.70;22.67;;;0.40;97.50;;;3.82;52.64;99363.41;5031944;28;20428;-45
2023/02/14 05:35:22;;;;;;;117.00;56.20;;;0.30;96.80;;;3.79;52.74;99360.06;5032851;28;20057;-45
2023/02/14 05:37:49;;;;;;;74.93;35.07;;;0.30;97.20;;;3.78;53.19;99363.59;5032644;28;20052;-45
2023/02/14 05:40:17;;;;;;;43.80;20.97;;;0.30;97.40;;;3.79;53.06;99366.16;5032703;28;20052;-46
2023/02/14 05:42:44;;;;;;;40.00;20.17;;;0.30;97.20;;;3.82;52.69;99370.44;5031484;28;20056;-45
2023/02/14 05:45:13;;;;;;;44.77;23.13;;;0.40;97.60;;;3.83;52.79;99369.50;5031013;28;20057;-45
2023/02/14 05:47:40;;;;;;;46.03;23.23;;;0.40;96.60;;;3.79;52.34;99370.59;5032722;28;20429;-48
2023/02/14 05:50:08;;;;;;;64.27;25.63;;;0.30;96.80;;;3.79;52.18;99362.69;5032577;28;20037;-49
2023/02/14 05:52:37;;;;;;;43.83;21.37;;;0.30;96.80;;;3.77;52.38;99365.41;5032417;28;20042;-48
2023/02/14 05:55:05;;;;;;;33.50;18.33;;;0.30;97.10;;;3.79;52.41;99373.22;5032741;28;20034;-48
2023/02/14 05:57:32;;;;;;;24.87;14.10;;;0.30;96.50;;;3.80;52.51;99370.53;5023335;28;20049;-44
2023/02/14 06:00:01;;;;;;;25.70;14.60;;;0.30;96.40;;;3.79;52.51;99376.72;5032295;28;20109;-48
2023/02/14 06:02:38;;;;;;;27.33;15.40;;;0.30;96.00;;;3.78;52.27;99376.78;5026319;28;20049;-49
2023/02/14 06:05:07;;;;;;;28.43;15.40;;;0.30;96.20;;;3.75;52.16;99381.28;5031167;28;20065;-46
2023/02/14 06:07:34;;;;;;;29.83;15.77;;;0.30;96.90;;;3.73;52.32;99377.03;5024209;28;20048;-49
2023/02/14 06:10:02;;;;;;;26.30;13.93;;;0.20;95.50;;;3.73;52.03;99379.66;5032123;28;20104;-48
2023/02/14 06:12:30;;;;;;;27.73;14.63;;;0.20;96.30;;;3.69;52.91;99367.56;5031048;28;20064;-44
2023/02/14 06:14:57;;;;;;;23.20;12.63;;;0.20;95.90;;;3.67;51.98;99369.44;5031977;28;20045;-44
2023/02/14 06:17:25;;;;;;;28.10;13.30;;;0.10;95.50;;;3.63;52.76;99374.00;5031995;28;20050;-45
2023/02/14 06:19:52;;;;;;;24.03;14.23;;;0.10;96.30;;;3.61;52.09;99375.00;5032081;28;20413;-50
2023/02/14 06:22:20;;;;;;;25.57;14.43;;;0.10;95.50;;;3.58;52.82;99375.97;5031767;28;20049;-45
2023/02/14 06:24:47;;;;;;;29.10;14.73;;;0.10;96.20;;;3.58;52.40;99380.41;5031683;28;20042;-50
2023/02/14 06:27:15;;;;;;;29.87;13.00;;;0.10;96.20;;;3.55;52.66;99382.25;5031733;28;20037;-46
2023/02/14 06:29:43;;;;;;;28.07;13.17;;;0.00;95.90;;;3.55;52.18;99384.91;5031748;28;20041;-46
2023/02/14 06:32:10;;;;;;;27.63;14.07;;;0.10;96.10;;;3.57;52.63;99382.19;5031683;28;20037;-47
2023/02/14 06:34:39;;;;;;;30.10;13.70;;;0.10;95.70;;;3.55;52.15;99397.22;5030458;28;20501;-44
2023/02/14 06:37:07;;;;;;;26.23;13.30;;;0.00;95.30;;;3.51;52.36;99391.25;5031536;28;20037;-48
2023/02/14 06:39:35;;;;;;;27.63;14.23;;;0.00;95.20;;;3.51;52.31;99396.50;5030945;28;20488;-47
2023/02/14 06:42:02;;;;;;;29.93;14.20;;;0.00;95.80;;;3.49;52.46;99400.13;5032414;28;20041;-49
2023/02/14 06:44:30;;;;;;;24.57;14.03;;;-0.10;95.60;;;3.49;52.64;99397.50;5031276;28;20033;-44
2023/02/14 06:46:57;;;;;;;28.13;14.70;;;0.00;96.30;;;3.45;52.92;99391.53;5031527;28;20409;-48
2023/02/14 06:49:25;;;;;;;25.60;13.87;;;0.00;97.00;;;3.49;52.85;99395.72;5030331;28;20041;-48
2023/02/14 06:51:52;;;;;;;24.30;13.37;;;0.00;97.60;;;3.52;53.00;99385.03;5031610;28;20473;-50
2023/02/14 06:54:20;;;;;;;30.07;16.00;;;0.10;97.80;;;3.58;52.86;99383.03;5030842;28;20067;-44
2023/02/14 06:56:48;;;;;;;26.30;13.80;;;0.20;97.80;;;3.59;53.08;99393.50;5031224;28;20034;-48
2023/02/14 06:59:15;;;;;;;26.10;13.77;;;0.20;97.50;;;3.60;52.92;99389.94;5013886;28;20066;-50
2023/02/14 07:01:43;;;;;;;26.13;14.47;;;0.20;98.00;;;3.65;53.14;99390.56;5031773;28;20060;-48
2023/02/14 07:04:10;;;;;;;30.57;15.47;;;0.20;98.30;;;3.70;52.97;99387.69;5030793;28;20041;-44
2023/02/14 07:06:38;;;;;;;30.60;15.40;;;0.30;98.10;;;3.71;52.86;99381.50;5029914;28;20470;-45
2023/02/14 07:09:06;;;;;;;36.77;17.53;;;0.30;97.80;;;3.73;52.76;99377.03;5031278;28;20033;-47
2023/02/14 07:11:33;;;;;;;36.17;19.80;;;0.30;97.80;;;3.75;52.88;99383.06;5031098;28;20048;-46
2023/02/14 07:14:01;;;;;;;34.93;18.03;;;0.20;97.50;;;3.75;52.94;99383.91;5030842;28;20516;-46
2023/02/14 07:16:28;;;;;;;41.20;19.03;;;0.30;98.20;;;3.75;52.62;99385.69;5031118;28;20044;-45
2023/02/14 07:18:56;;;;;;;33.97;17.30;;;0.30;98.20;;;3.75;52.71;99381.28;5031127;28;20045;-44
2023/02/14 07:21:23;;;;;;;54.73;23.83;;;0.20;98.50;;;3.77;52.93;99378.56;5030902;28;20049;-48
2023/02/14 07:23:51;;;;;;;63.37;27.43;;;0.30;98.90;;;3.82;52.61;99378.31;5030012;28;20052;-46
2023/02/14 07:26:19;;;;;;;63.53;28.13;;;0.30;99.20;;;3.85;52.43;99372.91;5030878;28;20057;-46
2023/02/14 07:28:50;;;;;;;51.10;22.27;;;0.40;99.10;;;3.87;53.14;99371.06;5030949;28;20048;-47
2023/02/14 07:31:22;;;;;;;56.03;24.67;;;0.40;98.70;;;3.87;52.63;99377.19;5023465;28;20049;-45
2023/02/14 07:33:50;;;;;;;55.33;24.67;;;0.40;98.80;;;3.87;53.36;99373.69;5028908;28;20374;-47
2023/02/14 07:36:18;;;;;;;62.93;26.40;;;0.40;98.90;;;3.90;53.02;99373.56;5030622;28;20045;-46
2023/02/14 07:38:46;;;;;;;62.43;26.70;;;0.40;99.50;;;3.90;52.99;99373.56;5031003;28;20048;-46
2023/02/14 07:41:13;;;;;;;42.63;20.97;;;0.40;99.90;;;3.93;53.13;99368.94;5030976;28;20401;-47
2023/02/14 07:43:41;;;;;;;39.27;19.23;;;0.50;99.90;;;3.96;53.04;99381.16;5037652;28;20049;-45
2023/02/14 07:46:08;;;;;;;36.13;17.47;;;0.50;99.90;;;3.97;53.18;99389.91;5030796;28;20413;-44
2023/02/14 07:48:38;;;;;;;34.53;16.70;;;0.50;99.90;;;3.97;53.02;99385.47;5029391;28;20444;-49
2023/02/14 07:51:05;;;;;;;46.77;21.87;;;0.50;99.90;;;4.00;52.85;99387.13;5037812;28;20037;-45
2023/02/14 07:53:33;;;;;;;43.83;20.70;;;0.50;99.90;;;4.01;53.01;99389.66;5030318;28;20053;-47
2023/02/14 07:56:00;;;;;;;47.60;22.87;;;0.50;99.90;;;4.01;53.29;99381.75;5030615;28;20037;-46
2023/02/14 07:58:28;;;;;;;42.57;21.67;;;0.50;99.90;;;4.02;53.58;99382.63;5030443;28;20045;-45
2023/02/14 08:00:55;;;;;;;59.27;24.13;;;0.50;99.90;;;4.02;53.05;99383.47;5030618;28;20512;-48
2023/02/14 08:03:23;;;;;;;51.43;21.70;;;0.50;99.90;;;4.08;53.73;99387.59;5029782;28;20418;-47
2023/02/14 08:05:55;;;;;;;44.57;21.40;;;0.60;99.90;;;4.10;53.09;99383.94;5030376;28;20409;-48
2023/02/14 08:08:26;;;;;;;48.43;21.90;;;0.60;99.90;;;4.14;53.52;99379.34;5030474;28;20056;-44
2023/02/14 08:10:54;;;;;;;54.63;23.43;;;0.70;99.90;;;4.16;53.70;99384.56;5030475;28;20041;-48
2023/02/14 08:13:21;;;;;;;48.70;21.87;;;0.70;99.90;;;4.15;53.39;99381.06;5030016;28;20053;-45
2023/02/14 08:16:04;;;;;;;43.87;20.63;;;0.60;99.90;;;4.19;53.56;99379.09;5030557;28;20038;-45
2023/02/14 08:18:38;;;;;;;66.23;26.40;;;0.70;99.90;;;4.21;53.47;99378.13;5030230;28;20637;-44
2023/02/14 08:21:09;;;;;;;38.47;18.67;;;0.80;99.90;;;4.25;54.07;99373.53;5030514;28;20291;-44
2023/02/14 08:23:37;;;;;;;43.47;20.37;;;0.80;99.90;;;4.27;53.85;99369.88;5028836;28;20041;-46
2023/02/14 08:26:05;;;;;;;40.07;20.10;;;0.80;99.90;;;4.31;53.71;99375.84;5029294;28;20049;-47
2023/02/14 08:28:33;;;;;;;47.97;21.53;;;0.90;99.90;;;4.38;53.50;99374.63;5029947;28;20045;-44
2023/02/14 08:31:03;;;;;;;41.97;20.13;;;0.90;99.90;;;4.43;53.97;99369.94;5030406;28;20042;-44
2023/02/14 08:33:31;;;;;;;42.43;21.30;;;1.00;99.90;;;4.47;53.66;99371.47;5029882;28;20050;-47
2023/02/14 08:35:59;;;;;;;37.33;19.20;;;1.00;99.90;;;4.49;53.49;99372.25;5031765;28;20041;-46
2023/02/14 08:38:27;;;;;;;40.60;18.83;;;1.10;99.90;;;4.52;53.83;99369.47;5032913;28;20049;-50
2023/02/14 08:41:00;;;;;;;39.67;17.63;;;1.10;99.90;;;4.56;53.95;99367.50;5033842;28;20041;-47
2023/02/14 08:43:29;;;;;;;41.33;18.40;;;1.20;99.90;;;4.62;54.12;99369.81;5033359;28;20053;-48
2023/02/14 08:46:00;;;;;;;42.83;18.50;;;1.20;99.90;;;4.68;53.67;99366.84;5032817;28;20425;-43
2023/02/14 08:48:29;;;;;;;33.67;17.77;;;1.30;99.90;;;4.74;54.05;99371.78;5033696;28;20033;-47
2023/02/14 08:50:57;;;;;;;43.50;20.80;;;1.40;99.90;;;4.79;53.96;99368.94;5033578;28;20056;-46
2023/02/14 08:53:24;;;;;;;43.10;18.67;;;1.50;99.90;;;4.86;54.42;99372.06;5033283;28;20413;-44
2023/02/14 08:55:52;;;;;;;31.37;16.93;;;1.50;99.90;;;4.91;54.04;99370.06;5033614;28;20041;-49
2023/02/14 08:58:19;;;;;;;37.00;18.27;;;1.60;99.90;;;4.95;54.22;99368.94;5032330;28;20037;-46
2023/02/14 09:00:47;;;;;;;43.90;21.17;;;1.60;99.90;;;5.04;53.79;99370.22;5033647;28;20045;-46
2023/02/14 09:03:15;;;;;;;41.30;20.43;;;1.70;99.90;;;5.08;54.60;99369.13;5033139;28;20417;-45
2023/02/14 09:05:42;;;;;;;39.73;20.80;;;1.80;99.90;;;5.13;54.37;99369.72;5025304;28;20037;-45
2023/02/14 09:08:10;;;;;;;48.30;21.97;;;1.80;99.90;;;5.15;54.23;99370.47;5032952;28;20046;-45
2023/02/14 09:10:37;;;;;;;36.70;19.70;;;1.80;99.90;;;5.20;53.81;99363.16;5032070;28;20061;-44
2023/02/14 09:13:05;;;;;;;33.90;18.53;;;1.90;99.90;;;5.26;54.21;99365.47;5033052;28;20034;-45
2023/02/14 09:15:33;;;;;;;37.37;20.27;;;2.00;99.90;;;5.30;54.29;99367.00;5033211;28;20042;-47
2023/02/14 09:18:01;;;;;;;30.80;17.60;;;2.10;99.90;;;5.37;53.78;99366.63;5032158;28;20033;-49
2023/02/14 09:20:28;;;;;;;38.17;18.67;;;2.10;99.90;;;5.42;54.62;99362.81;5033160;28;20056;-47
2023/02/14 09:22:56;;;;;;;27.83;15.73;;;2.10;99.90;;;5.47;53.87;99359.94;5032843;28;20056;-46
2023/02/14 09:25:23;;;;;;;36.73;19.27;;;2.20;99.90;;;5.52;54.80;99360.50;5033205;28;20425;-45
2023/02/14 09:27:51;;;;;;;34.97;18.70;;;2.30;99.90;;;5.56;54.71;99363.81;5033132;28;20037;-44
2023/02/14 09:30:18;;;;;;;36.67;17.67;;;2.40;99.90;;;5.61;54.43;99359.13;5032869;28;20045;-50
2023/02/14 09:32:46;;;;;;;36.60;18.27;;;2.40;99.90;;;5.68;54.00;99363.09;5039829;28;20040;-46
2023/02/14 09:35:13;;;;;;;38.07;19.10;;;2.50;99.90;;;5.75;54.53;99363.63;5032913;28;20488;-48
2023/02/14 09:40:27;;;;;;;37.17;18.87;;;2.50;99.90;;;5.87;53.94;99366.41;5032876;28;20057;-46
2023/02/14 09:43:22;;;;;;;37.20;18.97;;;2.60;99.90;;;5.89;54.56;99361.00;5032523;28;20045;-44
2023/02/14 09:45:54;;;;;;;30.13;17.53;;;2.70;99.90;;;6.01;54.05;99355.06;5025410;28;20045;-45
2023/02/14 09:48:33;;;;;;;36.57;19.43;;;2.70;99.90;;;6.06;53.88;99355.63;5032721;28;20083;-45
2023/02/14 09:51:09;;;;;;;35.43;19.33;;;2.80;99.90;;;6.14;54.14;99351.66;5031358;28;20045;-45
2023/02/14 09:53:51;;;;;;;33.30;17.83;;;2.90;99.90;;;6.16;53.79;99342.69;5032121;28;20056;-45
2023/02/14 09:56:30;;;;;;;33.63;18.17;;;2.90;99.90;;;6.24;53.88;99347.53;5031518;28;20061;-47
2023/02/14 09:59:23;;;;;;;38.17;19.07;;;2.90;99.90;;;6.29;54.21;99341.00;5028161;28;20033;-46
2023/02/14 10:02:00;;;;;;;31.77;18.43;;;3.00;99.90;;;6.33;53.70;99340.84;5023954;28;20628;-48
2023/02/14 10:04:51;;;;;;;50.07;27.10;;;3.00;99.90;;;6.37;53.50;99335.25;5030665;28;20406;-47
2023/02/14 10:07:43;;;;;;;41.40;20.23;;;3.10;99.90;;;6.42;53.93;99337.66;5029026;28;20057;-45
2023/02/14 10:10:24;;;;;;;40.00;20.27;;;3.10;99.90;;;6.46;54.01;99334.72;5026220;28;20519;-46
2023/02/14 10:13:18;;;;;;;36.20;19.03;;;3.20;99.90;;;6.46;54.44;99337.34;5023470;28;20045;-43
2023/02/14 10:15:53;;;;;;;31.50;17.80;;;3.20;99.90;;;6.56;53.63;99331.50;5031189;28;20041;-45
2023/02/14 10:18:42;;;;;;;31.37;16.83;;;3.30;99.90;;;6.56;54.01;99324.41;5030992;28;20048;-44
2023/02/14 10:21:42;;;;;;;26.63;14.93;;;3.40;99.90;;;6.63;53.87;99323.09;5026096;28;20420;-44
2023/02/14 10:24:34;;;;;;;30.20;16.23;;;3.40;99.90;;;6.67;53.40;99329.06;5026581;28;20052;-46
2023/02/14 10:27:10;;;;;;;72.83;39.17;;;3.40;99.90;;;6.70;53.63;99324.38;5024853;28;20041;-46
2023/02/14 10:29:40;;;;;;;52.30;28.83;;;3.50;99.90;;;6.77;53.48;99326.69;5030608;28;20045;-46
2023/02/14 10:32:17;;;;;;;42.53;22.53;;;3.50;99.90;;;6.83;53.75;99318.34;5028865;28;20468;-46
2023/02/14 10:34:50;;;;;;;34.80;18.07;;;3.60;99.90;;;6.88;53.56;99316.25;5030429;28;20037;-46
2023/02/14 10:37:35;;;;;;;29.13;17.38;;;3.60;99.90;;;6.93;54.02;99318.63;5031721;28;20049;-44
2023/02/14 10:40:52;;;;;;;32.80;19.10;;;3.60;99.90;;;6.93;53.90;99313.31;5024850;28;20444;-47
2023/02/14 10:44:00;;;;;;;29.63;16.33;;;3.70;99.90;;;7.00;54.02;99312.84;5007957;28;20077;-44
2023/02/14 10:46:54;;;;;;;34.50;17.17;;;3.80;99.90;;;7.09;53.29;99306.94;5027737;28;20049;-48
2023/02/14 10:49:47;;;;;;;29.60;17.60;;;3.90;99.90;;;7.14;53.98;99313.75;5031460;28;20049;-48
2023/02/14 10:52:39;;;;;;;27.07;16.07;;;3.90;99.90;;;7.18;53.71;99309.94;5027061;28;20038;-44
2023/02/14 10:55:33;;;;;;;30.40;16.67;;;4.00;99.90;;;7.21;53.47;99310.59;5030303;28;20040;-46
2023/02/14 10:58:05;;;;;;;32.72;17.35;;;4.00;99.90;;;7.29;53.46;99303.00;5023553;28;20072;-46
2023/02/14 11:00:37;;;;;;;27.97;18.03;;;4.10;99.90;;;7.33;53.18;99298.38;5030009;28;20057;-47
2023/02/14 11:03:09;;;;;;;24.80;15.90;;;4.10;99.90;;;7.36;53.62;99297.31;5029970;28;20037;-45
2023/02/14 11:05:48;;;;;;;34.37;18.50;;;4.20;99.90;;;7.40;53.37;99293.50;5031297;28;20045;-44